createdAt,value
2019-04-20T00:00:41.682Z,70.44
2019-04-20T00:03:08.026Z,69.70
2019-04-20T00:05:37.311Z,69.47
2019-04-20T00:08:15.013Z,69.09
2019-04-20T00:10:47.549Z,68.88
2019-04-20T00:13:21.698Z,68.82
2019-04-20T00:15:40.933Z,68.57
2019-04-20T00:18:13.147Z,68.94
2019-04-20T00:20:51.365Z,68.54
2019-04-20T00:23:33.432Z,68.67
2019-04-20T00:26:24.898Z,68.53
2019-04-20T00:29:07.142Z,69.09
2019-04-20T00:31:30.682Z,69.06
2019-04-20T00:33:59.432Z,70.75
2019-04-20T00:36:20.549Z,70.27
2019-04-20T00:38:56.351Z,70.76
2019-04-20T00:41:22.984Z,71.28
2019-04-20T00:43:53.386Z,72.95
2019-04-20T00:46:30.439Z,74.02
2019-04-20T00:49:01.580Z,73.31
2019-04-20T00:51:39.461Z,72.68
2019-04-20T00:53:58.756Z,74.10
2019-04-20T00:56:27.172Z,74.00
2019-04-20T00:59:09.238Z,73.74
2019-04-20T01:01:50.380Z,73.42
2019-04-20T01:07:17.672Z,73.80
2019-04-20T01:10:02.780Z,75.07
2019-04-20T01:12:34.945Z,76.43
2019-04-20T01:15:06.338Z,76.54
2019-04-20T01:17:37.974Z,76.53
2019-04-20T01:20:06.292Z,76.04
2019-04-20T01:22:44.376Z,76.54
2019-04-20T01:25:14.168Z,77.56
2019-04-20T01:27:50.155Z,77.38
2019-04-20T01:30:17.434Z,78.43
2019-04-20T01:32:55.174Z,79.20
2019-04-20T01:35:32.617Z,79.36
2019-04-20T01:38:00.181Z,80.67
2019-04-20T01:40:14.902Z,81.52
2019-04-20T01:42:44.630Z,81.84
2019-04-20T01:45:21.403Z,82.08
2019-04-20T01:47:49.407Z,82.33
2019-04-20T01:50:23.914Z,81.87
2019-04-20T01:52:58.174Z,82.08
2019-04-20T01:55:42.501Z,81.66
2019-04-20T01:58:36.386Z,80.77
2019-04-20T02:01:19.192Z,80.72
2019-04-20T02:04:03.240Z,80.67
2019-04-20T02:06:39.962Z,80.53
2019-04-20T02:09:10.142Z,79.79
2019-04-20T02:11:40.141Z,79.25
2019-04-20T02:14:09.124Z,80.06
2019-04-20T02:16:43.994Z,81.17
2019-04-20T02:19:25.449Z,81.61
2019-04-20T02:21:55.436Z,82.04
2019-04-20T02:24:12.560Z,80.37
2019-04-20T02:26:42.940Z,79.36
2019-04-20T02:29:36.063Z,78.99
2019-04-20T02:35:07.712Z,80.62
2019-04-20T02:38:02.874Z,80.75
2019-04-20T02:48:00.905Z,79.55
2019-04-20T02:50:44.314Z,80.67
2019-04-20T02:55:31.276Z,81.61
2019-04-20T02:58:01.907Z,82.12
2019-04-20T03:00:29.898Z,82.20
2019-04-20T03:02:50.986Z,82.22
2019-04-20T03:05:20.680Z,82.59
2019-04-20T03:08:01.167Z,82.55
2019-04-20T03:10:44.556Z,82.68
2019-04-20T03:13:05.341Z,82.61
2019-04-20T03:15:34.916Z,82.91
2019-04-20T03:18:11.764Z,83.45
2019-04-20T03:20:36.856Z,83.90
2019-04-20T03:25:55.441Z,83.79
2019-04-20T03:28:26.247Z,83.86
2019-04-20T03:33:53.722Z,83.72
2019-04-20T03:36:12.492Z,83.84
2019-04-20T03:38:38.391Z,84.08
2019-04-20T03:40:59.270Z,84.15
2019-04-20T03:43:18.132Z,84.44
2019-04-20T03:45:56.190Z,84.33
2019-04-20T03:48:35.985Z,84.07
2019-04-20T03:51:07.299Z,83.48
2019-04-20T03:53:39.745Z,83.99
2019-04-20T03:56:35.162Z,83.14
2019-04-20T03:59:01.769Z,83.03
2019-04-20T04:02:26.427Z,82.71
2019-04-20T04:05:01.795Z,82.44
2019-04-20T04:07:19.561Z,82.59
2019-04-20T04:09:58.632Z,82.55
2019-04-20T04:12:49.719Z,82.78
2019-04-20T04:15:18.985Z,83.05
2019-04-20T04:17:49.840Z,83.10
2019-04-20T04:20:21.397Z,83.23
2019-04-20T04:23:10.334Z,83.33
2019-04-20T04:25:33.566Z,82.76
2019-04-20T04:28:09.364Z,82.37
2019-04-20T04:30:39.278Z,81.84
2019-04-20T04:35:38.698Z,80.98
2019-04-20T04:38:23.574Z,80.58
2019-04-20T04:40:58.710Z,80.30
2019-04-20T04:43:22.218Z,78.63
2019-04-20T04:45:31.878Z,75.95
2019-04-20T04:48:02.018Z,72.43
2019-04-20T04:50:32.957Z,69.07
2019-04-20T04:53:09.067Z,66.48
2019-04-20T04:55:43.884Z,64.29
2019-04-20T04:58:04.756Z,62.69
2019-04-20T05:00:35.874Z,59.18
2019-04-20T05:03:28.231Z,57.46
2019-04-20T05:06:08.840Z,54.58
2019-04-20T05:08:27.346Z,51.04
2019-04-20T05:10:52.029Z,48.20
2019-04-20T05:13:21.977Z,46.00
2019-04-20T05:16:03.488Z,43.58
2019-04-20T05:18:44.978Z,42.58
2019-04-20T05:21:21.685Z,41.53
2019-04-20T05:23:47.829Z,41.71
2019-04-20T05:26:55.628Z,42.01
2019-04-20T05:29:08.445Z,41.14
2019-04-20T05:31:41.481Z,40.50
2019-04-20T05:34:25.607Z,40.61
2019-04-20T05:36:55.673Z,40.30
2019-04-20T05:39:32.959Z,39.37
2019-04-20T05:41:56.797Z,37.24
2019-04-20T05:44:31.929Z,37.14
2019-04-20T05:47:05.512Z,36.08
2019-04-20T05:49:34.532Z,35.30
2019-04-20T05:52:24.127Z,33.71
2019-04-20T05:54:51.121Z,34.53
2019-04-20T05:57:19.554Z,33.63
2019-04-20T05:59:51.372Z,32.51
2019-04-20T06:02:16.941Z,32.46
2019-04-20T06:07:23.943Z,32.58
2019-04-20T06:09:46.241Z,32.21
2019-04-20T06:12:19.836Z,30.99
2019-04-20T06:15:14.514Z,30.60
2019-04-20T06:18:13.583Z,29.96
2019-04-20T06:20:47.804Z,28.23
2019-04-20T06:23:42.756Z,27.60
2019-04-20T06:26:20.681Z,27.93
2019-04-20T06:28:30.077Z,27.62
2019-04-20T06:31:11.332Z,26.75
2019-04-20T06:34:27.147Z,25.52
2019-04-20T06:37:06.870Z,24.76
2019-04-20T06:39:20.277Z,25.46
2019-04-20T06:42:06.802Z,25.34
2019-04-20T06:44:24.191Z,23.84
2019-04-20T06:46:59.015Z,23.42
2019-04-20T06:52:23.365Z,22.83
2019-04-20T06:54:57.806Z,22.12
2019-04-20T06:57:35.719Z,22.42
2019-04-20T07:00:07.185Z,21.32
2019-04-20T07:02:43.111Z,22.66
2019-04-20T07:05:13.012Z,21.37
2019-04-20T07:07:43.216Z,21.32
2019-04-20T07:10:19.372Z,20.95
2019-04-20T07:12:36.958Z,20.54
2019-04-20T07:15:08.553Z,20.60
2019-04-20T07:18:04.920Z,19.62
2019-04-20T07:20:55.632Z,18.59
2019-04-20T07:23:26.953Z,19.93
2019-04-20T07:25:54.302Z,19.90
2019-04-20T07:28:26.004Z,18.31
2019-04-20T07:30:55.359Z,18.70
2019-04-20T07:33:26.952Z,19.85
2019-04-20T07:35:55.983Z,19.09
2019-04-20T07:38:34.523Z,19.20
2019-04-20T07:40:59.988Z,18.55
2019-04-20T07:43:29.952Z,16.95
2019-04-20T07:46:04.192Z,16.40
2019-04-20T07:48:29.569Z,17.10
2019-04-20T07:50:55.590Z,16.95
2019-04-20T07:53:29.408Z,18.08
2019-04-20T07:56:09.185Z,16.75
2019-04-20T07:58:28.554Z,16.80
2019-04-20T08:01:24.248Z,17.92
2019-04-20T08:03:55.692Z,17.77
2019-04-20T08:06:29.844Z,16.44
2019-04-20T08:09:08.725Z,16.79
2019-04-20T08:11:50.437Z,16.56
2019-04-20T08:14:22.448Z,16.40
2019-04-20T08:17:05.377Z,14.98
2019-04-20T08:19:17.453Z,14.39
2019-04-20T08:22:08.024Z,14.38
2019-04-20T08:24:17.016Z,14.68
2019-04-20T08:26:41.583Z,14.67
2019-04-20T08:29:38.170Z,16.05
2019-04-20T08:32:28.305Z,16.55
2019-04-20T08:35:05.246Z,16.25
2019-04-20T08:37:38.032Z,14.87
2019-04-20T08:40:13.265Z,14.67
2019-04-20T08:42:51.178Z,14.51
2019-04-20T08:45:18.086Z,13.94
2019-04-20T08:47:51.421Z,14.15
2019-04-20T08:50:19.896Z,15.22
2019-04-20T08:55:21.305Z,16.24
2019-04-20T08:57:31.449Z,16.94
2019-04-20T09:00:03.596Z,17.27
2019-04-20T09:02:32.692Z,18.28
2019-04-20T09:05:09.058Z,17.90
2019-04-20T09:07:45.275Z,16.37
2019-04-20T09:10:28.222Z,15.66
2019-04-20T09:12:54.699Z,13.84
2019-04-20T09:15:10.165Z,16.40
2019-04-20T09:17:55.996Z,15.22
2019-04-20T09:20:34.367Z,13.06
2019-04-20T09:23:28.665Z,12.75
2019-04-20T09:26:16.240Z,13.54
2019-04-20T09:28:28.616Z,12.79
2019-04-20T09:31:12.221Z,12.25
2019-04-20T09:34:08.339Z,11.99
2019-04-20T09:36:42.321Z,13.93
2019-04-20T09:39:31.599Z,14.04
2019-04-20T09:42:01.473Z,15.53
2019-04-20T09:44:37.559Z,15.86
2019-04-20T09:47:04.673Z,17.07
2019-04-20T09:49:42.467Z,16.63
2019-04-20T09:52:17.315Z,17.66
2019-04-20T09:54:52.505Z,17.93
2019-04-20T09:57:25.518Z,17.20
2019-04-20T09:59:58.727Z,19.14
2019-04-20T10:02:17.002Z,18.03
2019-04-20T10:04:39.842Z,17.98
2019-04-20T10:07:14.231Z,17.64
2019-04-20T10:09:44.585Z,17.78
2019-04-20T10:12:11.428Z,16.57
2019-04-20T10:14:40.846Z,18.45
2019-04-20T10:17:10.175Z,18.53
2019-04-20T10:19:41.340Z,19.84
2019-04-20T10:22:10.985Z,20.55
2019-04-20T10:24:40.302Z,20.94
2019-04-20T10:27:10.507Z,20.90
2019-04-20T10:29:39.846Z,20.24
2019-04-20T10:32:12.515Z,19.88
2019-04-20T10:34:40.941Z,19.63
2019-04-20T10:37:19.779Z,18.83
2019-04-20T10:39:49.354Z,20.13
2019-04-20T10:42:18.663Z,20.66
2019-04-20T10:44:48.244Z,20.44
2019-04-20T10:47:18.959Z,20.32
2019-04-20T10:49:49.294Z,20.02
2019-04-20T10:52:19.894Z,19.86
2019-04-20T10:54:50.369Z,20.36
2019-04-20T10:57:19.757Z,20.83
2019-04-20T10:59:49.846Z,20.03
2019-04-20T11:02:19.490Z,19.83
2019-04-20T11:04:48.909Z,19.84
2019-04-20T11:07:18.743Z,20.40
2019-04-20T11:10:00.652Z,20.13
2019-04-20T11:12:20.086Z,21.66
2019-04-20T11:14:50.242Z,21.17
2019-04-20T11:17:20.454Z,20.91
2019-04-20T11:19:49.780Z,22.02
2019-04-20T11:22:20.048Z,22.73
2019-04-20T11:24:50.227Z,24.25
2019-04-20T11:27:20.440Z,25.54
2019-04-20T11:29:49.892Z,26.60
2019-04-20T11:32:20.209Z,28.03
2019-04-20T11:34:49.566Z,28.97
2019-04-20T11:37:19.363Z,30.04
2019-04-20T11:39:48.739Z,29.68
2019-04-20T11:42:19.226Z,29.98
2019-04-20T11:44:48.929Z,31.24
2019-04-20T11:47:18.874Z,30.80
2019-04-20T11:49:49.370Z,30.13
2019-04-20T11:52:21.412Z,30.75
2019-04-20T11:54:50.485Z,30.75
2019-04-20T11:57:19.868Z,31.14
2019-04-20T11:59:49.099Z,28.84
2019-04-20T12:02:33.064Z,29.57
2019-04-20T12:05:16.689Z,30.41
2019-04-20T12:07:40.582Z,30.41
2019-04-20T12:10:17.000Z,29.98
2019-04-20T12:12:46.726Z,30.34
2019-04-20T12:15:13.078Z,30.87
2019-04-20T12:17:43.950Z,30.75
2019-04-20T12:20:14.592Z,31.20
2019-04-20T12:22:44.301Z,29.95
2019-04-20T12:25:14.705Z,30.11
2019-04-20T12:27:50.758Z,29.93
2019-04-20T12:30:15.588Z,30.56
2019-04-20T12:32:51.515Z,31.03
2019-04-20T12:35:16.647Z,31.20
2019-04-20T12:37:47.351Z,31.63
2019-04-20T12:40:19.874Z,33.25
2019-04-20T12:42:49.237Z,33.35
2019-04-20T12:45:19.704Z,34.99
2019-04-20T12:47:51.372Z,36.00
2019-04-20T12:50:21.493Z,36.53
2019-04-20T12:52:52.296Z,37.12
2019-04-20T12:55:22.877Z,37.41
2019-04-20T12:57:52.546Z,37.41
2019-04-20T13:00:23.587Z,37.05
2019-04-20T13:02:53.691Z,36.24
2019-04-20T13:05:23.272Z,36.76
2019-04-20T13:07:56.421Z,34.99
2019-04-20T13:10:25.350Z,35.19
2019-04-20T13:13:26.245Z,35.75
2019-04-20T13:16:14.513Z,35.14
2019-04-20T13:18:53.090Z,36.34
2019-04-20T13:21:22.980Z,37.24
2019-04-20T13:23:53.179Z,38.23
2019-04-20T13:26:22.713Z,38.76
2019-04-20T13:28:52.922Z,39.20
2019-04-20T13:31:22.189Z,38.66
2019-04-20T13:33:51.757Z,37.43
2019-04-20T13:36:22.045Z,37.45
2019-04-20T13:38:52.244Z,35.87
2019-04-20T13:41:22.101Z,35.47
2019-04-20T13:43:54.183Z,34.92
2019-04-20T13:46:22.970Z,35.26
2019-04-20T13:48:53.199Z,34.36
2019-04-20T13:51:23.019Z,33.65
2019-04-20T13:53:53.291Z,32.98
2019-04-20T13:56:23.915Z,32.76
2019-04-20T13:59:14.880Z,33.02
2019-04-20T14:01:57.092Z,31.98
2019-04-20T14:04:32.904Z,31.56
2019-04-20T14:07:03.640Z,31.56
2019-04-20T14:09:33.294Z,30.59
2019-04-20T14:12:14.188Z,30.56
2019-04-20T14:14:34.978Z,30.10
2019-04-20T14:17:05.394Z,29.46
2019-04-20T14:19:34.898Z,30.29
2019-04-20T14:22:04.418Z,30.29
2019-04-20T14:24:34.978Z,30.11
2019-04-20T14:27:04.334Z,28.74
2019-04-20T14:29:34.800Z,28.93
2019-04-20T14:32:05.956Z,29.11
2019-04-20T14:34:35.409Z,29.57
2019-04-20T14:37:04.838Z,28.95
2019-04-20T14:39:34.290Z,28.95
2019-04-20T14:42:04.580Z,28.44
2019-04-20T14:44:34.070Z,27.61
2019-04-20T14:47:03.683Z,27.82
2019-04-20T14:49:33.025Z,28.44
2019-04-20T14:52:03.125Z,27.69
2019-04-20T14:54:33.388Z,27.96
2019-04-20T14:57:03.408Z,27.50
2019-04-20T14:59:39.019Z,27.75
2019-04-20T15:02:13.557Z,26.59
2019-04-20T15:04:43.377Z,26.72
2019-04-20T15:07:13.023Z,26.63
2019-04-20T15:09:42.952Z,26.93
2019-04-20T15:12:12.929Z,26.79
2019-04-20T15:14:42.723Z,25.96
2019-04-20T15:17:15.535Z,27.52
2019-04-20T15:19:49.699Z,26.26
2019-04-20T15:22:36.771Z,25.89
2019-04-20T15:25:07.632Z,25.75
2019-04-20T15:27:37.403Z,26.21
2019-04-20T15:30:08.617Z,25.69
2019-04-20T15:32:38.988Z,25.82
2019-04-20T15:35:09.190Z,25.88
2019-04-20T15:37:39.499Z,26.20
2019-04-20T15:40:10.863Z,26.81
2019-04-20T15:42:53.776Z,26.65
2019-04-20T15:45:11.666Z,26.77
2019-04-20T15:47:41.246Z,27.63
2019-04-20T15:50:11.833Z,27.95
2019-04-20T15:52:45.631Z,28.95
2019-04-20T15:55:21.648Z,28.87
2019-04-20T15:57:44.748Z,28.33
2019-04-20T16:00:16.182Z,28.35
2019-04-20T16:02:53.654Z,29.43
2019-04-20T16:06:01.222Z,30.05
2019-04-20T16:08:32.651Z,28.62
2019-04-20T16:11:04.534Z,29.78
2019-04-20T16:13:37.920Z,29.53
2019-04-20T16:16:05.849Z,30.00
2019-04-20T16:18:35.259Z,29.29
2019-04-20T16:21:10.121Z,28.96
2019-04-20T16:23:50.708Z,29.40
2019-04-20T16:26:49.474Z,28.94
2019-04-20T16:29:19.834Z,30.29
2019-04-20T16:31:50.757Z,29.69
2019-04-20T16:34:21.402Z,29.98
2019-04-20T16:36:54.325Z,27.86
2019-04-20T16:39:22.622Z,28.49
2019-04-20T16:41:52.041Z,27.32
2019-04-20T16:44:21.402Z,26.36
2019-04-20T16:46:52.072Z,27.07
2019-04-20T16:49:21.437Z,26.90
2019-04-20T16:51:52.555Z,28.00
2019-04-20T16:54:23.451Z,26.17
2019-04-20T16:56:53.134Z,28.51
2019-04-20T16:59:22.591Z,26.66
2019-04-20T17:01:51.894Z,28.19
2019-04-20T17:04:23.009Z,27.45
2019-04-20T17:07:12.464Z,27.83
2019-04-20T17:09:42.157Z,27.83
2019-04-20T17:12:12.079Z,26.95
2019-04-20T17:14:41.526Z,26.95
2019-04-20T17:17:11.573Z,27.58
2019-04-20T17:19:41.728Z,28.63
2019-04-20T17:22:11.697Z,27.41
2019-04-20T17:24:41.046Z,27.58
2019-04-20T17:27:39.075Z,27.58
2019-04-20T17:30:27.263Z,29.30
2019-04-20T17:33:00.505Z,27.87
2019-04-20T17:35:43.620Z,27.81
2019-04-20T17:38:02.866Z,27.42
2019-04-20T17:40:52.632Z,28.59
2019-04-20T17:43:12.717Z,27.17
2019-04-20T17:45:43.221Z,28.22
2019-04-20T17:48:21.579Z,29.22
2019-04-20T17:51:03.003Z,28.70
2019-04-20T17:53:37.187Z,29.46
2019-04-20T17:56:01.644Z,30.56
2019-04-20T17:58:32.945Z,30.75
2019-04-20T18:01:34.797Z,29.57
2019-04-20T18:04:27.381Z,31.00
2019-04-20T18:06:45.270Z,31.18
2019-04-20T18:09:13.282Z,32.64
2019-04-20T18:11:40.343Z,32.58
2019-04-20T18:14:24.229Z,32.81
2019-04-20T18:16:56.304Z,33.95
2019-04-20T18:19:25.709Z,32.55
2019-04-20T18:21:58.248Z,33.77
2019-04-20T18:24:51.019Z,33.11
2019-04-20T18:27:24.315Z,31.26
2019-04-20T18:29:45.628Z,31.17
2019-04-20T18:32:20.107Z,30.44
2019-04-20T18:35:06.260Z,30.00
2019-04-20T18:37:34.386Z,30.94
2019-04-20T18:40:10.748Z,30.28
2019-04-20T18:42:40.489Z,29.94
2019-04-20T18:45:28.068Z,30.82
2019-04-20T18:47:53.958Z,31.03
2019-04-20T18:50:18.605Z,31.36
2019-04-20T18:52:42.153Z,32.82
2019-04-20T18:55:16.093Z,32.45
2019-04-20T18:57:44.451Z,33.50
2019-04-20T19:00:22.508Z,33.73
2019-04-20T19:02:52.055Z,33.92
2019-04-20T19:05:19.802Z,34.82
2019-04-20T19:07:57.875Z,35.75
2019-04-20T19:10:27.549Z,36.10
2019-04-20T19:12:59.876Z,37.12
2019-04-20T19:16:00.496Z,36.86
2019-04-20T19:18:50.458Z,36.95
2019-04-20T19:21:05.108Z,35.87
2019-04-20T19:23:36.670Z,35.42
2019-04-20T19:26:11.925Z,35.96
2019-04-20T19:28:43.007Z,34.90
2019-04-20T19:31:21.553Z,34.63
2019-04-20T19:34:00.835Z,36.03
2019-04-20T19:36:20.051Z,35.79
2019-04-20T19:38:56.302Z,36.31
2019-04-20T19:41:25.391Z,37.03
2019-04-20T19:43:55.017Z,37.68
2019-04-20T19:46:48.254Z,37.61
2019-04-20T19:48:55.936Z,38.35
2019-04-20T19:51:43.505Z,38.88
2019-04-20T19:54:16.604Z,39.30
2019-04-20T19:56:37.376Z,39.75
2019-04-20T19:59:02.953Z,40.06
2019-04-20T20:01:22.236Z,40.46
2019-04-20T20:03:56.356Z,40.33
2019-04-20T20:06:30.523Z,40.31
2019-04-20T20:08:57.958Z,41.50
2019-04-20T20:11:30.455Z,41.73
2019-04-20T20:13:58.478Z,42.31
2019-04-20T20:16:43.608Z,42.89
2019-04-20T20:19:05.992Z,43.84
2019-04-20T20:21:45.143Z,43.91
2019-04-20T20:24:01.999Z,44.60
2019-04-20T20:26:37.002Z,45.83
2019-04-20T20:29:11.928Z,45.62
2019-04-20T20:31:51.050Z,45.44
2019-04-20T20:34:12.892Z,44.44
2019-04-20T20:36:43.533Z,44.52
2019-04-20T20:39:15.614Z,45.40
2019-04-20T20:41:54.370Z,44.83
2019-04-20T20:44:25.976Z,44.11
2019-04-20T20:46:55.053Z,44.22
2019-04-20T20:49:33.101Z,44.09
2019-04-20T20:52:09.732Z,44.26
2019-04-20T20:54:30.408Z,43.14
2019-04-20T20:56:55.583Z,42.81
2019-04-20T20:59:30.395Z,42.94
2019-04-20T21:01:54.062Z,43.87
2019-04-20T21:04:19.597Z,42.85
2019-04-20T21:06:48.947Z,42.47
2019-04-20T21:09:18.622Z,43.70
2019-04-20T21:11:52.026Z,43.02
2019-04-20T21:14:21.981Z,43.34
2019-04-20T21:17:00.332Z,43.43
2019-04-20T21:19:41.776Z,43.65
2019-04-20T21:22:00.027Z,43.72
2019-04-20T21:24:35.904Z,45.87
2019-04-20T21:27:07.750Z,44.36
2019-04-20T21:29:43.507Z,45.09
2019-04-20T21:32:12.514Z,45.15
2019-04-20T21:34:44.486Z,46.04
2019-04-20T21:37:13.576Z,46.55
2019-04-20T21:39:49.292Z,47.16
2019-04-20T21:42:15.835Z,47.54
2019-04-20T21:44:46.152Z,46.57
2019-04-20T21:47:15.677Z,46.67
2019-04-20T21:49:55.739Z,46.93
2019-04-20T21:52:24.917Z,46.85
2019-04-20T21:54:47.887Z,46.95
2019-04-20T21:57:18.116Z,46.80
2019-04-20T21:59:50.862Z,47.94
2019-04-20T22:02:25.393Z,47.08
2019-04-20T22:04:51.181Z,47.42
2019-04-20T22:07:20.820Z,47.97
2019-04-20T22:09:53.301Z,48.92
2019-04-20T22:12:21.118Z,49.45
2019-04-20T22:15:00.100Z,50.03
2019-04-20T22:17:27.575Z,50.13
2019-04-20T22:20:06.040Z,50.90
2019-04-20T22:22:44.187Z,51.69
2019-04-20T22:25:06.283Z,51.12
2019-04-20T22:27:30.022Z,51.91
2019-04-20T22:29:57.559Z,51.43
2019-04-20T22:32:28.136Z,51.58
2019-04-20T22:35:03.134Z,51.82
2019-04-20T22:37:36.584Z,52.53
2019-04-20T22:40:06.958Z,51.29
2019-04-20T22:42:40.115Z,51.33
2019-04-20T22:45:11.849Z,50.54
2019-04-20T22:47:39.449Z,50.74
2019-04-20T22:50:31.600Z,51.30
2019-04-20T22:52:52.461Z,51.38
2019-04-20T22:55:36.637Z,51.64
2019-04-20T22:57:54.032Z,51.54
2019-04-20T23:00:29.336Z,51.64
2019-04-20T23:02:47.345Z,51.67
2019-04-20T23:05:16.583Z,51.43
2019-04-20T23:07:46.622Z,51.67
2019-04-20T23:10:18.235Z,51.52
2019-04-20T23:12:52.407Z,51.67
2019-04-20T23:15:18.608Z,51.95
2019-04-20T23:17:50.442Z,51.19
2019-04-20T23:20:25.245Z,51.45
2019-04-20T23:22:51.339Z,51.63
2019-04-20T23:25:21.150Z,51.44
2019-04-20T23:27:57.991Z,51.93
2019-04-20T23:30:26.117Z,53.09
2019-04-20T23:32:53.914Z,53.24
2019-04-20T23:35:25.252Z,54.00
2019-04-20T23:38:01.229Z,55.10
2019-04-20T23:40:25.779Z,55.76
2019-04-20T23:43:15.332Z,56.31
2019-04-20T23:45:52.990Z,56.98
2019-04-20T23:48:30.596Z,58.23
2019-04-20T23:51:09.920Z,58.19
2019-04-20T23:53:43.794Z,58.59
2019-04-20T23:56:01.670Z,58.88
2019-04-20T23:58:39.919Z,58.79
